Terminal Aerodrome Forecast
Issued by NWS

Home | Current Version | Previous Version | Text Only | Print | Product List | Glossary On
Versions: 1 2 3 4 5 6 7 8 9 10 11 12 13 14 15 16 17
538
FTUS46 KHNX 270537
TAFMCE
TAF
KMCE 270537Z 2706/2806 VRB03KT P6SM BKN050 OVC100
      TEMPO 2706/2710 5SM -SHRA SCT020 BKN035
     FM271400 32009KT P6SM OVC025
     FM271700 32016G27KT P6SM SCT030 BKN050
     FM280300 32012KT P6SM SCT250=

USA.gov is the U.S. government's official web portal to all federal, state and local government web resources and services.